Time;durP1;ratioP1;P1;durP2;ratioP2;P2;SDS_P1;SDS_P2;PMS_P1;PMS_P2;Temp;Humidity;BMP_temperature;BMP_pressure;BME280_temperature;BME280_humidity;BME280_pressure;Samples;Min_cycle;Max_cycle;Signal;HPM_P1;HPM_P2
2024/03/11 00:00:33;;;;;;;2.88;0.52;;;;;;;;;;2041012;29;20070;-53
2024/03/11 00:01:35;;;;;;;2.00;0.70;;;;;;;;;;2043540;29;20110;-49
2024/03/11 00:02:36;;;;;;;2.72;0.57;;;;;;;;;;2045696;28;20057;-52
2024/03/11 00:03:38;;;;;;;2.58;0.55;;;;;;;;;;2048295;28;20121;-51
2024/03/11 00:04:40;;;;;;;1.33;0.30;;;;;;;;;;2048349;28;20042;-52
2024/03/11 00:05:45;;;;;;;3.75;0.60;;;;;;;;;;2048306;29;20023;-51
2024/03/11 00:06:48;;;;;;;2.03;0.60;;;;;;;;;;2048209;29;20086;-53
2024/03/11 00:07:50;;;;;;;0.90;0.40;;;;;;;;;;2047861;29;20030;-52
2024/03/11 00:08:52;;;;;;;1.98;0.63;;;;;;;;;;2047917;28;20102;-52
2024/03/11 00:09:53;;;;;;;1.63;0.55;;;;;;;;;;2049135;28;20042;-51
2024/03/11 00:11:00;;;;;;;2.13;0.52;;;;;;;;;;2048573;28;20019;-52
2024/03/11 00:12:01;;;;;;;3.50;0.65;;;;;;;;;;2048786;28;20082;-51
2024/03/11 00:13:03;;;;;;;1.38;0.55;;;;;;;;;;2048383;29;20019;-52
2024/03/11 00:14:06;;;;;;;1.58;0.60;;;;;;;;;;2047953;28;20022;-52
2024/03/11 00:15:07;;;;;;;1.33;0.57;;;;;;;;;;2048922;28;20101;-51
2024/03/11 00:16:09;;;;;;;0.95;0.60;;;;;;;;;;2049099;28;20023;-51
2024/03/11 00:17:10;;;;;;;1.85;0.60;;;;;;;;;;2048779;28;20086;-53
2024/03/11 00:18:13;;;;;;;1.27;0.45;;;;;;;;;;2049199;29;20027;-53
2024/03/11 00:19:15;;;;;;;1.73;0.75;;;;;;;;;;2048885;28;20004;-53
2024/03/11 00:20:16;;;;;;;2.95;0.75;;;;;;;;;;2048931;29;20074;-51
2024/03/11 00:21:17;;;;;;;1.38;0.80;;;;;;;;;;2048263;29;20019;-54
2024/03/11 00:22:21;;;;;;;1.38;0.73;;;;;;;;;;2047926;29;20027;-50
2024/03/11 00:23:22;;;;;;;2.17;0.80;;;;;;;;;;2048777;28;20359;-52
2024/03/11 00:24:23;;;;;;;1.75;0.70;;;;;;;;;;2049061;29;20011;-50
2024/03/11 00:25:25;;;;;;;3.20;1.05;;;;;;;;;;2048840;28;20042;-53
2024/03/11 00:26:27;;;;;;;3.58;0.90;;;;;;;;;;2048220;28;20038;-51
2024/03/11 00:27:28;;;;;;;2.50;0.75;;;;;;;;;;2040298;29;20498;-53
2024/03/11 00:28:29;;;;;;;2.10;0.70;;;;;;;;;;2048155;28;20063;-51
2024/03/11 00:29:31;;;;;;;1.48;0.70;;;;;;;;;;2048675;28;20018;-53
2024/03/11 00:30:32;;;;;;;3.08;1.00;;;;;;;;;;2047956;29;20035;-51
2024/03/11 00:31:34;;;;;;;1.90;0.60;;;;;;;;;;2047726;28;20015;-51
2024/03/11 00:32:36;;;;;;;1.83;0.77;;;;;;;;;;2048788;28;20039;-51
2024/03/11 00:33:37;;;;;;;2.40;0.93;;;;;;;;;;2048683;28;20450;-54
2024/03/11 00:34:41;;;;;;;2.70;0.98;;;;;;;;;;2048718;28;20343;-53
2024/03/11 00:35:43;;;;;;;2.63;0.88;;;;;;;;;;2048443;29;20011;-55
2024/03/11 00:36:44;;;;;;;1.85;0.70;;;;;;;;;;2044320;29;20641;-53
2024/03/11 00:37:46;;;;;;;2.42;0.75;;;;;;;;;;2040965;29;20028;-49
2024/03/11 00:38:47;;;;;;;2.85;0.73;;;;;;;;;;2042228;28;20035;-55
2024/03/11 00:39:48;;;;;;;1.83;0.70;;;;;;;;;;2044076;29;20055;-54
2024/03/11 00:40:50;;;;;;;1.80;0.63;;;;;;;;;;2042004;28;20122;-51
2024/03/11 00:41:51;;;;;;;2.72;0.80;;;;;;;;;;2037752;29;20023;-54
2024/03/11 00:42:53;;;;;;;5.03;1.00;;;;;;;;;;2048035;28;20042;-53
2024/03/11 00:43:55;;;;;;;1.70;0.60;;;;;;;;;;2047643;28;20031;-52
2024/03/11 00:44:56;;;;;;;3.00;0.77;;;;;;;;;;2047363;28;20482;-55
2024/03/11 00:45:59;;;;;;;3.55;0.80;;;;;;;;;;2048106;28;20174;-54
2024/03/11 00:47:02;;;;;;;2.38;0.90;;;;;;;;;;2048839;28;20039;-51
2024/03/11 00:48:06;;;;;;;1.83;0.40;;;;;;;;;;2048095;28;20039;-52
2024/03/11 00:49:09;;;;;;;2.55;0.80;;;;;;;;;;2047885;29;20034;-52
2024/03/11 00:50:12;;;;;;;1.55;0.75;;;;;;;;;;2040758;29;20031;-50
2024/03/11 00:51:17;;;;;;;1.40;0.70;;;;;;;;;;2047812;28;20027;-52
2024/03/11 00:52:18;;;;;;;1.70;0.65;;;;;;;;;;2048390;28;20051;-55
2024/03/11 00:53:20;;;;;;;2.42;0.70;;;;;;;;;;2048796;29;20031;-54
2024/03/11 00:54:22;;;;;;;1.20;0.60;;;;;;;;;;2047986;29;20011;-53
2024/03/11 00:55:23;;;;;;;2.75;0.80;;;;;;;;;;2048155;29;20027;-54
2024/03/11 00:56:24;;;;;;;2.63;0.60;;;;;;;;;;2048535;28;20027;-54
2024/03/11 00:57:26;;;;;;;1.80;1.02;;;;;;;;;;2048676;28;20023;-54
2024/03/11 00:58:31;;;;;;;3.00;0.88;;;;;;;;;;2045785;28;20427;-54
2024/03/11 00:59:33;;;;;;;2.97;0.80;;;;;;;;;;2047731;28;20529;-54
2024/03/11 01:00:34;;;;;;;3.25;1.05;;;;;;;;;;2047566;29;20412;-53
2024/03/11 01:01:36;;;;;;;3.17;0.90;;;;;;;;;;2048870;28;20359;-50
2024/03/11 01:02:40;;;;;;;3.55;0.73;;;;;;;;;;2047703;29;20475;-49
2024/03/11 01:03:43;;;;;;;2.35;0.82;;;;;;;;;;2047538;28;20023;-48
2024/03/11 01:04:46;;;;;;;2.88;0.90;;;;;;;;;;2048339;28;20023;-49
2024/03/11 01:05:49;;;;;;;1.77;0.63;;;;;;;;;;2046902;29;20042;-48
2024/03/11 01:06:50;;;;;;;1.73;0.57;;;;;;;;;;2048080;29;20028;-48
2024/03/11 01:07:51;;;;;;;1.20;0.55;;;;;;;;;;2041374;29;20162;-49
2024/03/11 01:08:54;;;;;;;2.88;0.90;;;;;;;;;;2050091;28;20030;-48
2024/03/11 01:09:56;;;;;;;1.63;0.80;;;;;;;;;;2055298;28;20564;-47
2024/03/11 01:10:57;;;;;;;1.38;0.73;;;;;;;;;;2048421;29;20023;-47
2024/03/11 01:11:58;;;;;;;2.53;0.77;;;;;;;;;;2048691;28;20015;-48
2024/03/11 01:13:00;;;;;;;0.90;0.50;;;;;;;;;;2048094;29;20146;-48
2024/03/11 01:14:01;;;;;;;2.40;0.57;;;;;;;;;;2052789;28;20474;-48
2024/03/11 01:15:02;;;;;;;3.47;0.98;;;;;;;;;;2055266;28;20034;-47
2024/03/11 01:16:07;;;;;;;2.15;0.85;;;;;;;;;;2048430;29;20027;-53
2024/03/11 01:17:08;;;;;;;3.00;0.93;;;;;;;;;;2048316;28;20066;-51
2024/03/11 01:18:10;;;;;;;1.73;0.47;;;;;;;;;;2040006;29;20027;-51
2024/03/11 01:19:11;;;;;;;1.92;0.70;;;;;;;;;;2040040;29;20024;-50
2024/03/11 01:20:15;;;;;;;2.00;0.88;;;;;;;;;;2050779;28;20019;-49
2024/03/11 01:21:20;;;;;;;4.78;0.90;;;;;;;;;;2050222;28;20545;-51
2024/03/11 01:22:22;;;;;;;3.63;0.80;;;;;;;;;;2047888;28;20018;-50
2024/03/11 01:23:23;;;;;;;2.30;0.85;;;;;;;;;;2049643;28;20473;-50
2024/03/11 01:24:24;;;;;;;3.50;0.88;;;;;;;;;;2056637;28;20429;-50
2024/03/11 01:25:26;;;;;;;3.17;1.20;;;;;;;;;;2050407;28;20554;-50
2024/03/11 01:26:27;;;;;;;3.17;0.80;;;;;;;;;;2048094;28;20019;-50
2024/03/11 01:27:29;;;;;;;2.28;0.70;;;;;;;;;;2047469;28;20390;-52
2024/03/11 01:28:30;;;;;;;1.67;0.57;;;;;;;;;;2047833;29;20018;-51
2024/03/11 01:29:31;;;;;;;2.53;0.82;;;;;;;;;;2047312;28;20027;-52
2024/03/11 01:30:34;;;;;;;4.13;1.00;;;;;;;;;;2047497;28;20098;-52
2024/03/11 01:31:36;;;;;;;1.67;0.60;;;;;;;;;;2042697;28;20031;-50
2024/03/11 01:32:44;;;;;;;5.40;0.88;;;;;;;;;;2048399;29;20015;-52
2024/03/11 01:33:45;;;;;;;3.13;0.75;;;;;;;;;;2047886;28;20020;-53
2024/03/11 01:34:47;;;;;;;2.58;0.65;;;;;;;;;;2047765;29;20110;-52
2024/03/11 01:35:48;;;;;;;4.30;0.93;;;;;;;;;;2042043;28;20479;-51
2024/03/11 01:36:49;;;;;;;2.42;0.68;;;;;;;;;;2045905;29;20012;-51
2024/03/11 01:37:51;;;;;;;1.75;0.70;;;;;;;;;;2042073;29;20075;-52
2024/03/11 01:38:53;;;;;;;1.58;0.75;;;;;;;;;;2047009;28;20026;-49
2024/03/11 01:39:56;;;;;;;2.35;0.90;;;;;;;;;;2045760;28;20035;-51
2024/03/11 01:40:57;;;;;;;1.05;0.60;;;;;;;;;;2048218;28;20501;-50
2024/03/11 01:41:59;;;;;;;1.73;0.57;;;;;;;;;;2047144;29;20398;-52
2024/03/11 01:43:00;;;;;;;1.55;0.80;;;;;;;;;;2051208;28;20035;-51
2024/03/11 01:44:01;;;;;;;4.22;0.90;;;;;;;;;;2053172;28;20034;-53
2024/03/11 01:45:03;;;;;;;2.22;0.77;;;;;;;;;;2045110;28;20044;-50
2024/03/11 01:46:06;;;;;;;2.10;0.85;;;;;;;;;;2047243;28;20046;-49
2024/03/11 01:47:07;;;;;;;2.08;0.77;;;;;;;;;;2046401;28;20034;-51
2024/03/11 01:48:09;;;;;;;2.85;0.60;;;;;;;;;;2047890;29;20027;-53
2024/03/11 01:49:11;;;;;;;1.83;0.77;;;;;;;;;;2047089;28;20016;-51
2024/03/11 01:50:16;;;;;;;2.47;0.90;;;;;;;;;;2047268;29;20054;-51
2024/03/11 01:51:17;;;;;;;2.78;0.80;;;;;;;;;;2047528;29;20027;-51
2024/03/11 01:52:24;;;;;;;4.15;0.75;;;;;;;;;;2048095;29;20028;-51
2024/03/11 01:53:28;;;;;;;2.10;0.68;;;;;;;;;;2048467;28;20019;-51
2024/03/11 01:54:31;;;;;;;2.65;0.75;;;;;;;;;;2045271;29;20023;-51
2024/03/11 01:55:32;;;;;;;1.88;0.52;;;;;;;;;;2047389;28;20107;-51
2024/03/11 01:56:34;;;;;;;2.67;1.05;;;;;;;;;;2049232;28;20019;-51
2024/03/11 01:57:35;;;;;;;2.72;0.60;;;;;;;;;;2049801;28;20016;-49
2024/03/11 01:58:40;;;;;;;4.72;0.55;;;;;;;;;;2050239;28;20028;-50
2024/03/11 01:59:41;;;;;;;2.35;0.63;;;;;;;;;;2049312;29;20482;-53
2024/03/11 02:00:45;;;;;;;2.30;0.73;;;;;;;;;;2048978;28;20070;-52
2024/03/11 02:01:47;;;;;;;3.15;0.80;;;;;;;;;;2049830;28;20033;-50
2024/03/11 02:02:51;;;;;;;2.67;0.77;;;;;;;;;;2050022;28;20037;-52
2024/03/11 02:03:52;;;;;;;1.95;0.75;;;;;;;;;;2052553;28;20101;-52
2024/03/11 02:04:54;;;;;;;1.23;0.80;;;;;;;;;;2046083;29;20027;-52
2024/03/11 02:05:55;;;;;;;2.17;0.70;;;;;;;;;;2049576;28;20027;-51
2024/03/11 02:06:57;;;;;;;2.22;0.70;;;;;;;;;;2048516;29;20023;-52
2024/03/11 02:08:00;;;;;;;1.40;0.57;;;;;;;;;;2041739;29;20035;-53
2024/03/11 02:09:03;;;;;;;3.22;0.82;;;;;;;;;;2049210;29;20019;-51
2024/03/11 02:10:13;;;;;;;2.63;1.00;;;;;;;;;;2050034;28;20375;-53
2024/03/11 02:11:14;;;;;;;3.42;0.75;;;;;;;;;;2049081;28;20082;-51
2024/03/11 02:12:18;;;;;;;2.83;0.68;;;;;;;;;;2049300;29;20015;-51
2024/03/11 02:13:20;;;;;;;2.08;0.80;;;;;;;;;;2049936;28;20016;-53
2024/03/11 02:14:22;;;;;;;1.63;0.70;;;;;;;;;;2049246;28;20027;-52
2024/03/11 02:15:23;;;;;;;3.15;0.80;;;;;;;;;;2049448;28;20666;-51
2024/03/11 02:16:25;;;;;;;1.63;0.52;;;;;;;;;;2049956;29;20027;-50
2024/03/11 02:17:28;;;;;;;2.00;0.70;;;;;;;;;;2049776;28;20116;-51
2024/03/11 02:18:29;;;;;;;2.25;0.80;;;;;;;;;;2049923;29;20034;-51
2024/03/11 02:19:31;;;;;;;1.98;0.70;;;;;;;;;;2049706;29;20477;-51
2024/03/11 02:20:35;;;;;;;3.38;1.02;;;;;;;;;;2049159;28;20027;-51
2024/03/11 02:21:41;;;;;;;3.58;0.75;;;;;;;;;;2049297;29;20030;-50
2024/03/11 02:22:56;;;;;;;2.22;0.68;;;;;;;;;;2049904;28;20390;-51
2024/03/11 02:23:58;;;;;;;2.25;0.80;;;;;;;;;;2049457;28;20497;-51
2024/03/11 02:24:59;;;;;;;2.33;0.90;;;;;;;;;;2048662;28;20423;-51
2024/03/11 02:26:01;;;;;;;1.25;0.50;;;;;;;;;;2041458;29;20039;-51
2024/03/11 02:27:02;;;;;;;3.15;0.73;;;;;;;;;;2048868;28;20027;-52
2024/03/11 02:28:04;;;;;;;1.13;0.68;;;;;;;;;;2048630;28;20024;-52
2024/03/11 02:29:05;;;;;;;4.40;0.85;;;;;;;;;;2049898;28;20042;-51
2024/03/11 02:30:10;;;;;;;4.38;0.80;;;;;;;;;;2048067;28;20107;-51
2024/03/11 02:31:12;;;;;;;5.00;1.13;;;;;;;;;;2042656;28;20020;-52
2024/03/11 02:32:13;;;;;;;1.35;0.80;;;;;;;;;;2048941;28;20019;-51
2024/03/11 02:33:14;;;;;;;4.63;1.15;;;;;;;;;;2049263;29;20058;-51
2024/03/11 02:34:16;;;;;;;3.15;0.95;;;;;;;;;;2048900;28;20020;-51
2024/03/11 02:35:18;;;;;;;1.98;1.00;;;;;;;;;;2049079;29;20031;-49
2024/03/11 02:36:22;;;;;;;3.33;0.90;;;;;;;;;;2049027;28;20529;-51
2024/03/11 02:37:23;;;;;;;2.55;0.77;;;;;;;;;;2049828;28;20098;-51
2024/03/11 02:38:25;;;;;;;1.63;0.75;;;;;;;;;;2046869;28;20031;-51
2024/03/11 02:39:27;;;;;;;2.58;1.00;;;;;;;;;;2046018;29;20391;-52
2024/03/11 02:40:29;;;;;;;1.83;0.80;;;;;;;;;;2049699;28;20150;-50
2024/03/11 02:41:32;;;;;;;4.10;0.85;;;;;;;;;;2040877;29;20027;-52
2024/03/11 02:42:36;;;;;;;1.88;0.88;;;;;;;;;;2041323;29;20412;-51
2024/03/11 02:43:38;;;;;;;3.38;0.77;;;;;;;;;;2041841;29;20028;-53
2024/03/11 02:44:39;;;;;;;2.67;0.70;;;;;;;;;;2045154;28;20019;-51
2024/03/11 02:45:41;;;;;;;2.85;0.90;;;;;;;;;;2049471;29;20110;-52
2024/03/11 02:46:42;;;;;;;1.77;0.65;;;;;;;;;;2045682;28;20051;-53
2024/03/11 02:47:43;;;;;;;2.28;0.70;;;;;;;;;;2047560;29;20035;-51
2024/03/11 02:48:45;;;;;;;1.48;0.73;;;;;;;;;;2048130;28;20020;-52
2024/03/11 02:49:46;;;;;;;2.60;0.77;;;;;;;;;;2049619;29;20054;-57
2024/03/11 02:50:47;;;;;;;2.42;0.90;;;;;;;;;;2049543;29;20018;-52
2024/03/11 02:51:48;;;;;;;3.00;0.60;;;;;;;;;;2049542;28;20023;-52
2024/03/11 02:52:50;;;;;;;4.97;0.65;;;;;;;;;;2049346;29;20074;-52
2024/03/11 02:53:52;;;;;;;4.43;1.15;;;;;;;;;;2048994;28;20034;-53
2024/03/11 02:54:53;;;;;;;3.80;1.10;;;;;;;;;;2048483;28;20082;-51
2024/03/11 02:55:56;;;;;;;1.75;1.00;;;;;;;;;;2049126;29;20106;-52
2024/03/11 02:56:57;;;;;;;2.75;0.82;;;;;;;;;;2047760;28;20102;-51
2024/03/11 02:57:58;;;;;;;3.05;1.58;;;;;;;;;;2048630;28;20016;-51
2024/03/11 02:58:59;;;;;;;2.15;0.70;;;;;;;;;;2048989;28;20795;-48
2024/03/11 03:00:02;;;;;;;3.10;1.30;;;;;;;;;;2049599;28;20355;-51
2024/03/11 03:01:05;;;;;;;2.40;0.75;;;;;;;;;;2049444;28;20023;-52
2024/03/11 03:02:08;;;;;;;2.78;1.00;;;;;;;;;;2049475;28;20030;-52
2024/03/11 03:03:09;;;;;;;2.35;0.80;;;;;;;;;;2049376;28;20677;-51
2024/03/11 03:04:11;;;;;;;2.28;0.98;;;;;;;;;;2048776;28;20411;-51
2024/03/11 03:05:12;;;;;;;2.28;0.85;;;;;;;;;;2048816;29;20118;-51
2024/03/11 03:06:17;;;;;;;2.80;0.90;;;;;;;;;;2049376;28;20099;-51
2024/03/11 03:07:19;;;;;;;1.77;0.93;;;;;;;;;;2048587;28;20046;-52
2024/03/11 03:08:20;;;;;;;1.83;0.88;;;;;;;;;;2048458;29;20490;-48
2024/03/11 03:09:21;;;;;;;5.18;1.00;;;;;;;;;;2049342;28;20027;-51
2024/03/11 03:10:23;;;;;;;2.15;1.00;;;;;;;;;;2048874;29;20027;-53
2024/03/11 03:11:24;;;;;;;3.03;0.70;;;;;;;;;;2049505;29;20016;-52
2024/03/11 03:12:25;;;;;;;2.55;0.90;;;;;;;;;;2047865;28;20030;-52
2024/03/11 03:13:27;;;;;;;2.85;1.17;;;;;;;;;;2048898;29;20011;-51
2024/03/11 03:14:28;;;;;;;2.45;0.95;;;;;;;;;;2049385;29;20023;-51
2024/03/11 03:15:29;;;;;;;2.65;0.80;;;;;;;;;;2048722;28;20016;-51
2024/03/11 03:16:31;;;;;;;7.65;1.08;;;;;;;;;;2048641;29;20039;-48
2024/03/11 03:17:33;;;;;;;3.65;0.80;;;;;;;;;;2049103;29;20023;-52
2024/03/11 03:18:34;;;;;;;4.82;1.20;;;;;;;;;;2049448;28;20024;-52
2024/03/11 03:19:35;;;;;;;4.55;1.17;;;;;;;;;;2049319;28;20027;-51
2024/03/11 03:20:38;;;;;;;2.08;0.82;;;;;;;;;;2049374;28;20103;-52
2024/03/11 03:21:39;;;;;;;3.05;0.90;;;;;;;;;;2049100;28;20023;-53
2024/03/11 03:22:40;;;;;;;4.00;1.00;;;;;;;;;;2049253;29;20062;-52
2024/03/11 03:23:42;;;;;;;3.28;0.90;;;;;;;;;;2049127;28;20023;-51
2024/03/11 03:24:43;;;;;;;5.35;1.15;;;;;;;;;;2047826;28;20030;-53
2024/03/11 03:25:44;;;;;;;3.15;1.00;;;;;;;;;;2055004;28;20011;-52
2024/03/11 03:26:46;;;;;;;2.13;0.95;;;;;;;;;;2055635;28;20023;-51
2024/03/11 03:27:47;;;;;;;3.45;0.90;;;;;;;;;;2047236;28;20031;-50
2024/03/11 03:28:48;;;;;;;4.10;0.93;;;;;;;;;;2043970;28;20169;-51
2024/03/11 03:29:50;;;;;;;3.97;1.30;;;;;;;;;;2047964;28;20102;-51
2024/03/11 03:30:53;;;;;;;3.25;1.00;;;;;;;;;;2048622;28;20098;-48
2024/03/11 03:31:55;;;;;;;3.08;0.80;;;;;;;;;;2048832;28;20094;-48
2024/03/11 03:32:57;;;;;;;3.45;1.00;;;;;;;;;;2040568;29;20032;-48
2024/03/11 03:33:59;;;;;;;5.32;1.38;;;;;;;;;;2042395;28;20094;-48
2024/03/11 03:35:00;;;;;;;3.65;1.27;;;;;;;;;;2052219;28;20023;-49
2024/03/11 03:36:04;;;;;;;2.15;0.95;;;;;;;;;;2055822;28;20022;-49
2024/03/11 03:37:06;;;;;;;5.43;1.33;;;;;;;;;;2058722;28;20022;-48
2024/03/11 03:38:08;;;;;;;3.20;0.98;;;;;;;;;;2049367;29;20027;-53
2024/03/11 03:39:09;;;;;;;4.82;1.05;;;;;;;;;;2049117;28;20031;-54
2024/03/11 03:40:15;;;;;;;5.22;1.27;;;;;;;;;;2049143;29;20066;-49
2024/03/11 03:41:17;;;;;;;2.85;1.17;;;;;;;;;;2048510;29;20137;-48
2024/03/11 03:42:22;;;;;;;3.33;1.20;;;;;;;;;;2048379;28;20039;-48
2024/03/11 03:43:23;;;;;;;3.95;0.90;;;;;;;;;;2047654;28;20039;-48
2024/03/11 03:44:25;;;;;;;3.42;1.35;;;;;;;;;;2041346;28;20487;-48
2024/03/11 03:45:27;;;;;;;3.42;1.23;;;;;;;;;;2048412;28;20102;-49
2024/03/11 03:46:28;;;;;;;6.38;1.23;;;;;;;;;;2049021;28;20394;-49
2024/03/11 03:47:32;;;;;;;2.30;0.85;;;;;;;;;;2048957;28;20031;-48
2024/03/11 03:48:33;;;;;;;4.85;1.05;;;;;;;;;;2049328;28;20493;-48
2024/03/11 03:49:35;;;;;;;4.10;1.10;;;;;;;;;;2048779;28;20102;-48
2024/03/11 03:50:37;;;;;;;3.40;1.05;;;;;;;;;;2048891;29;20102;-48
2024/03/11 03:51:38;;;;;;;4.05;1.20;;;;;;;;;;2048476;29;20027;-50
2024/03/11 03:52:47;;;;;;;5.72;1.40;;;;;;;;;;2048109;28;20102;-48
2024/03/11 03:53:49;;;;;;;5.93;1.40;;;;;;;;;;2048798;28;20027;-48
2024/03/11 03:54:51;;;;;;;3.50;1.25;;;;;;;;;;2048608;28;20110;-49
2024/03/11 03:55:53;;;;;;;4.70;1.33;;;;;;;;;;2048989;28;20027;-48
2024/03/11 03:56:54;;;;;;;5.50;1.17;;;;;;;;;;2049120;28;20042;-48
2024/03/11 03:57:56;;;;;;;3.70;1.55;;;;;;;;;;2048828;28;20023;-47
2024/03/11 03:58:57;;;;;;;3.22;1.10;;;;;;;;;;2048912;28;20019;-48
2024/03/11 03:59:58;;;;;;;4.13;1.20;;;;;;;;;;2049138;28;20470;-48
2024/03/11 04:01:02;;;;;;;2.28;1.20;;;;;;;;;;2044373;28;20090;-48
2024/03/11 04:02:03;;;;;;;3.85;1.25;;;;;;;;;;2041845;29;20079;-48
2024/03/11 04:03:05;;;;;;;3.55;1.00;;;;;;;;;;2043295;28;20070;-48
2024/03/11 04:04:07;;;;;;;3.20;1.30;;;;;;;;;;2045024;28;20046;-48
2024/03/11 04:05:09;;;;;;;3.05;0.75;;;;;;;;;;2048282;29;20024;-48
2024/03/11 04:06:11;;;;;;;4.45;1.40;;;;;;;;;;2047841;28;20082;-48
2024/03/11 04:07:13;;;;;;;3.92;1.20;;;;;;;;;;2048222;29;20157;-49
2024/03/11 04:08:17;;;;;;;5.25;1.00;;;;;;;;;;2048467;29;20074;-48
2024/03/11 04:09:19;;;;;;;3.55;1.35;;;;;;;;;;2048361;29;20106;-49
2024/03/11 04:10:20;;;;;;;4.70;1.20;;;;;;;;;;2049112;28;20015;-48
2024/03/11 04:11:21;;;;;;;5.90;1.00;;;;;;;;;;2049032;28;20489;-49
2024/03/11 04:12:23;;;;;;;4.03;1.20;;;;;;;;;;2048848;29;20110;-48
2024/03/11 04:13:26;;;;;;;3.15;1.02;;;;;;;;;;2049739;28;20015;-48
2024/03/11 04:14:29;;;;;;;3.10;0.98;;;;;;;;;;2049760;28;20027;-49
2024/03/11 04:15:31;;;;;;;4.75;1.08;;;;;;;;;;2049039;28;20502;-48
2024/03/11 04:16:32;;;;;;;3.03;1.30;;;;;;;;;;2048979;28;20525;-49
2024/03/11 04:17:34;;;;;;;2.92;1.23;;;;;;;;;;2044656;28;20038;-48
2024/03/11 04:18:35;;;;;;;2.90;1.20;;;;;;;;;;2048273;29;20026;-48
2024/03/11 04:19:37;;;;;;;3.33;1.30;;;;;;;;;;2047633;28;20130;-49
2024/03/11 04:20:39;;;;;;;2.65;1.20;;;;;;;;;;2041134;29;20570;-48
2024/03/11 04:21:40;;;;;;;3.88;1.05;;;;;;;;;;2048289;28;20038;-48
2024/03/11 04:22:46;;;;;;;6.03;1.50;;;;;;;;;;2048196;29;20379;-48
2024/03/11 04:23:50;;;;;;;3.78;1.40;;;;;;;;;;2048249;28;20532;-48
2024/03/11 04:24:52;;;;;;;4.88;1.27;;;;;;;;;;2048228;28;20023;-48
2024/03/11 04:25:53;;;;;;;3.38;1.13;;;;;;;;;;2048420;29;20070;-49
2024/03/11 04:26:55;;;;;;;3.17;0.98;;;;;;;;;;2048250;28;20447;-51
2024/03/11 04:27:57;;;;;;;3.60;1.17;;;;;;;;;;2045606;28;20058;-49
2024/03/11 04:28:59;;;;;;;4.30;1.20;;;;;;;;;;2048371;28;20106;-49
2024/03/11 04:30:00;;;;;;;5.88;1.20;;;;;;;;;;2042665;28;20031;-48
2024/03/11 04:31:02;;;;;;;6.10;1.48;;;;;;;;;;2047902;28;20474;-49
2024/03/11 04:32:03;;;;;;;6.32;1.33;;;;;;;;;;2047638;28;20035;-49
2024/03/11 04:33:06;;;;;;;3.92;1.58;;;;;;;;;;2048834;28;20070;-49
2024/03/11 04:34:07;;;;;;;4.22;1.25;;;;;;;;;;2044702;28;20050;-49
2024/03/11 04:35:10;;;;;;;3.92;1.35;;;;;;;;;;2046708;29;20110;-49
2024/03/11 04:36:11;;;;;;;3.35;1.13;;;;;;;;;;2043852;28;20028;-48
2024/03/11 04:37:12;;;;;;;2.45;1.17;;;;;;;;;;2047952;28;20102;-47
2024/03/11 04:38:15;;;;;;;4.38;1.58;;;;;;;;;;2046416;28;20038;-47
2024/03/11 04:39:16;;;;;;;3.08;1.15;;;;;;;;;;2048250;28;20070;-53
2024/03/11 04:40:19;;;;;;;2.78;1.05;;;;;;;;;;2047792;28;20034;-51
2024/03/11 04:41:20;;;;;;;3.42;1.25;;;;;;;;;;2047438;28;20073;-52
2024/03/11 04:42:23;;;;;;;3.58;1.27;;;;;;;;;;2048832;28;20367;-53
2024/03/11 04:43:26;;;;;;;4.63;1.05;;;;;;;;;;2046592;28;20027;-54
2024/03/11 04:44:27;;;;;;;2.70;1.20;;;;;;;;;;2043092;28;20027;-54
2024/03/11 04:45:29;;;;;;;4.35;1.15;;;;;;;;;;2046789;28;20106;-53
2024/03/11 04:46:31;;;;;;;4.60;1.10;;;;;;;;;;2047059;28;20019;-53
2024/03/11 04:47:32;;;;;;;3.92;1.10;;;;;;;;;;2048373;28;20106;-52
2024/03/11 04:48:33;;;;;;;3.40;1.20;;;;;;;;;;2048602;28;20034;-52
2024/03/11 04:49:36;;;;;;;3.88;1.25;;;;;;;;;;2047996;28;20023;-53
2024/03/11 04:50:40;;;;;;;3.33;1.27;;;;;;;;;;2041635;29;20475;-55
2024/03/11 04:51:41;;;;;;;3.70;0.98;;;;;;;;;;2054243;28;20026;-53
2024/03/11 04:52:43;;;;;;;4.20;1.23;;;;;;;;;;2047817;28;20062;-54
2024/03/11 04:53:46;;;;;;;2.72;1.30;;;;;;;;;;2048059;29;20016;-54
2024/03/11 04:54:47;;;;;;;3.33;1.10;;;;;;;;;;2045395;28;20023;-52
2024/03/11 04:55:50;;;;;;;3.70;1.00;;;;;;;;;;2046687;29;20027;-53
2024/03/11 04:56:51;;;;;;;5.07;1.00;;;;;;;;;;2047976;28;20048;-52
2024/03/11 04:57:53;;;;;;;3.53;1.02;;;;;;;;;;2047908;28;20039;-53
2024/03/11 04:58:54;;;;;;;3.75;1.10;;;;;;;;;;2048555;28;20027;-51
2024/03/11 04:59:56;;;;;;;1.40;0.90;;;;;;;;;;2048263;28;20019;-52
2024/03/11 05:00:57;;;;;;;1.95;0.90;;;;;;;;;;2048791;28;20038;-52
2024/03/11 05:01:58;;;;;;;2.65;1.25;;;;;;;;;;2045951;28;20019;-53
2024/03/11 05:03:00;;;;;;;2.67;1.23;;;;;;;;;;2041527;29;20032;-48
2024/03/11 05:04:02;;;;;;;4.03;0.95;;;;;;;;;;2047544;28;20465;-50
2024/03/11 05:05:04;;;;;;;3.78;1.10;;;;;;;;;;2048253;28;20026;-51
2024/03/11 05:06:05;;;;;;;5.07;1.65;;;;;;;;;;2040709;29;20482;-53
2024/03/11 05:07:06;;;;;;;3.28;1.20;;;;;;;;;;2047888;29;20113;-52
2024/03/11 05:08:09;;;;;;;4.40;1.25;;;;;;;;;;2047638;29;20027;-52
2024/03/11 05:09:10;;;;;;;5.20;1.00;;;;;;;;;;2041553;29;20445;-49
2024/03/11 05:10:15;;;;;;;2.97;1.10;;;;;;;;;;2048110;29;20027;-52
2024/03/11 05:11:16;;;;;;;5.38;1.40;;;;;;;;;;2048480;29;20112;-52
2024/03/11 05:12:17;;;;;;;4.70;1.45;;;;;;;;;;2048394;28;20027;-52
2024/03/11 05:13:19;;;;;;;4.53;1.50;;;;;;;;;;2048395;28;20047;-51
2024/03/11 05:14:21;;;;;;;3.10;1.17;;;;;;;;;;2048741;28;20027;-51
2024/03/11 05:15:22;;;;;;;4.13;1.20;;;;;;;;;;2048350;28;20007;-52
2024/03/11 05:16:23;;;;;;;3.55;1.02;;;;;;;;;;2055575;28;20097;-50
2024/03/11 05:17:25;;;;;;;5.15;1.27;;;;;;;;;;2056092;28;20034;-52
2024/03/11 05:18:26;;;;;;;1.75;0.93;;;;;;;;;;2048035;28;20430;-53
2024/03/11 05:19:30;;;;;;;3.53;1.08;;;;;;;;;;2043111;29;20015;-53
2024/03/11 05:20:31;;;;;;;5.45;1.50;;;;;;;;;;2046007;28;20023;-50
2024/03/11 05:21:33;;;;;;;5.07;0.95;;;;;;;;;;2047790;28;20065;-52
2024/03/11 05:22:34;;;;;;;3.35;1.30;;;;;;;;;;2048582;28;20051;-51
2024/03/11 05:23:37;;;;;;;3.95;1.40;;;;;;;;;;2047897;28;20422;-53
2024/03/11 05:24:38;;;;;;;5.07;1.40;;;;;;;;;;2047178;28;20093;-52
2024/03/11 05:25:39;;;;;;;4.22;1.17;;;;;;;;;;2046524;28;20093;-51
2024/03/11 05:26:41;;;;;;;4.70;1.10;;;;;;;;;;2048239;29;20045;-51
2024/03/11 05:27:44;;;;;;;3.15;1.10;;;;;;;;;;2047345;28;20019;-54
2024/03/11 05:28:45;;;;;;;4.65;1.20;;;;;;;;;;2047453;29;20031;-51
2024/03/11 05:29:46;;;;;;;5.15;1.10;;;;;;;;;;2047062;28;20466;-50
2024/03/11 05:30:48;;;;;;;4.72;1.42;;;;;;;;;;2045346;29;20059;-51
2024/03/11 05:31:49;;;;;;;3.65;1.25;;;;;;;;;;2055582;28;20007;-52
2024/03/11 05:32:50;;;;;;;4.88;1.23;;;;;;;;;;2055847;28;20015;-51
2024/03/11 05:33:52;;;;;;;5.22;1.00;;;;;;;;;;2051262;28;20023;-48
2024/03/11 05:34:53;;;;;;;4.72;1.33;;;;;;;;;;2046803;29;20027;-52
2024/03/11 05:35:54;;;;;;;5.07;1.30;;;;;;;;;;2050458;28;20099;-52
2024/03/11 05:36:56;;;;;;;3.88;1.45;;;;;;;;;;2050375;28;20086;-51
2024/03/11 05:38:00;;;;;;;2.70;0.98;;;;;;;;;;2042370;29;20128;-52
2024/03/11 05:39:02;;;;;;;2.50;1.10;;;;;;;;;;2043097;29;20023;-51
2024/03/11 05:40:05;;;;;;;3.60;1.45;;;;;;;;;;2050473;29;20037;-50
2024/03/11 05:41:06;;;;;;;4.95;1.63;;;;;;;;;;2043973;29;20028;-52
2024/03/11 05:42:08;;;;;;;3.58;1.38;;;;;;;;;;2050381;28;20011;-50
2024/03/11 05:43:09;;;;;;;3.03;1.13;;;;;;;;;;2051175;28;20417;-50
2024/03/11 05:44:11;;;;;;;3.83;1.38;;;;;;;;;;2051053;28;20123;-50
2024/03/11 05:45:12;;;;;;;4.22;1.45;;;;;;;;;;2051389;28;20596;-50
2024/03/11 05:46:13;;;;;;;1.42;0.80;;;;;;;;;;2051011;29;20402;-51
2024/03/11 05:47:15;;;;;;;3.75;1.30;;;;;;;;;;2050428;29;20037;-50
2024/03/11 05:48:18;;;;;;;4.18;1.30;;;;;;;;;;2035811;29;20060;-51
2024/03/11 05:49:19;;;;;;;4.03;1.27;;;;;;;;;;2047284;29;20059;-51
2024/03/11 05:50:21;;;;;;;6.13;1.75;;;;;;;;;;2050520;29;20030;-52
2024/03/11 05:51:25;;;;;;;3.40;1.40;;;;;;;;;;2050416;28;20506;-52
2024/03/11 05:52:26;;;;;;;5.32;1.60;;;;;;;;;;2046146;28;20371;-51
2024/03/11 05:53:30;;;;;;;4.35;1.52;;;;;;;;;;2051066;28;20025;-51
2024/03/11 05:54:33;;;;;;;6.85;1.70;;;;;;;;;;2051166;29;20524;-52
2024/03/11 05:55:34;;;;;;;4.97;2.00;;;;;;;;;;2050607;28;20023;-49
2024/03/11 05:56:36;;;;;;;5.20;2.03;;;;;;;;;;2050960;28;20035;-50
2024/03/11 05:57:39;;;;;;;5.03;1.30;;;;;;;;;;2051141;28;20025;-51
2024/03/11 05:58:41;;;;;;;2.75;1.10;;;;;;;;;;2049299;28;20023;-49
2024/03/11 05:59:42;;;;;;;5.32;1.73;;;;;;;;;;2050837;29;20170;-50
2024/03/11 06:00:46;;;;;;;7.35;1.30;;;;;;;;;;2049870;28;20131;-48
2024/03/11 06:01:47;;;;;;;4.32;1.45;;;;;;;;;;2051278;28;20171;-52
2024/03/11 06:02:48;;;;;;;5.68;1.30;;;;;;;;;;2050312;28;20019;-50
2024/03/11 06:03:50;;;;;;;4.85;1.65;;;;;;;;;;2050305;29;20035;-50
2024/03/11 06:04:51;;;;;;;4.90;1.30;;;;;;;;;;2050632;29;20468;-51
2024/03/11 06:05:52;;;;;;;3.95;1.35;;;;;;;;;;2050807;28;20462;-50
2024/03/11 06:06:54;;;;;;;8.25;2.88;;;;;;;;;;2050848;28;20023;-51
2024/03/11 06:07:56;;;;;;;5.32;1.70;;;;;;;;;;2050970;28;20059;-51
2024/03/11 06:08:58;;;;;;;4.20;1.52;;;;;;;;;;2053333;28;20027;-50
2024/03/11 06:10:00;;;;;;;4.20;1.83;;;;;;;;;;2051009;28;20073;-52
2024/03/11 06:11:01;;;;;;;6.57;1.75;;;;;;;;;;2050762;28;20027;-49
2024/03/11 06:12:03;;;;;;;3.83;1.65;;;;;;;;;;2050856;28;20028;-47